sensor_id;sensor_type;location;lat;lon;timestamp;P1;durP1;ratioP1;P2;durP2;ratioP2
5871;SDS011;2962;51.312;7.378;2022-09-17T00:01:51;13.03;;;8.53;;
5871;SDS011;2962;51.312;7.378;2022-09-17T00:04:18;17.03;;;8.10;;
5871;SDS011;2962;51.312;7.378;2022-09-17T00:06:43;15.03;;;8.20;;
5871;SDS011;2962;51.312;7.378;2022-09-17T00:09:08;18.83;;;8.40;;
5871;SDS011;2962;51.312;7.378;2022-09-17T00:11:36;23.27;;;11.60;;
5871;SDS011;2962;51.312;7.378;2022-09-17T00:14:03;27.20;;;13.63;;
5871;SDS011;2962;51.312;7.378;2022-09-17T00:16:35;24.30;;;13.43;;
5871;SDS011;2962;51.312;7.378;2022-09-17T00:19:04;19.97;;;13.00;;
5871;SDS011;2962;51.312;7.378;2022-09-17T00:21:31;34.87;;;15.60;;
5871;SDS011;2962;51.312;7.378;2022-09-17T00:23:57;28.17;;;14.00;;
5871;SDS011;2962;51.312;7.378;2022-09-17T00:26:24;29.50;;;15.47;;
5871;SDS011;2962;51.312;7.378;2022-09-17T00:28:51;29.43;;;16.50;;
5871;SDS011;2962;51.312;7.378;2022-09-17T00:31:18;35.47;;;15.90;;
5871;SDS011;2962;51.312;7.378;2022-09-17T00:33:43;25.87;;;16.30;;
5871;SDS011;2962;51.312;7.378;2022-09-17T00:36:09;34.00;;;16.37;;
5871;SDS011;2962;51.312;7.378;2022-09-17T00:38:34;32.27;;;18.03;;
5871;SDS011;2962;51.312;7.378;2022-09-17T00:41:00;27.97;;;16.37;;
5871;SDS011;2962;51.312;7.378;2022-09-17T00:43:35;30.97;;;16.87;;
5871;SDS011;2962;51.312;7.378;2022-09-17T00:46:09;38.60;;;17.27;;
5871;SDS011;2962;51.312;7.378;2022-09-17T00:48:40;30.90;;;16.17;;
5871;SDS011;2962;51.312;7.378;2022-09-17T00:51:05;29.33;;;15.97;;
5871;SDS011;2962;51.312;7.378;2022-09-17T00:53:34;31.23;;;17.10;;
5871;SDS011;2962;51.312;7.378;2022-09-17T00:56:02;29.10;;;17.27;;
5871;SDS011;2962;51.312;7.378;2022-09-17T00:58:31;34.20;;;17.60;;
5871;SDS011;2962;51.312;7.378;2022-09-17T01:01:00;34.73;;;15.20;;
5871;SDS011;2962;51.312;7.378;2022-09-17T01:03:25;26.00;;;15.33;;
5871;SDS011;2962;51.312;7.378;2022-09-17T01:08:46;29.13;;;17.20;;
5871;SDS011;2962;51.312;7.378;2022-09-17T01:19:49;29.87;;;17.43;;
5871;SDS011;2962;51.312;7.378;2022-09-17T01:33:34;38.80;;;16.70;;
5871;SDS011;2962;51.312;7.378;2022-09-17T01:39:30;31.57;;;17.77;;
5871;SDS011;2962;51.312;7.378;2022-09-17T01:42:23;31.70;;;17.33;;
5871;SDS011;2962;51.312;7.378;2022-09-17T01:44:59;24.10;;;14.57;;
5871;SDS011;2962;51.312;7.378;2022-09-17T01:47:30;30.77;;;17.10;;
5871;SDS011;2962;51.312;7.378;2022-09-17T01:50:06;37.23;;;16.13;;
5871;SDS011;2962;51.312;7.378;2022-09-17T01:52:36;32.07;;;17.57;;
5871;SDS011;2962;51.312;7.378;2022-09-17T01:55:04;34.43;;;16.83;;
5871;SDS011;2962;51.312;7.378;2022-09-17T01:57:35;38.80;;;19.33;;
5871;SDS011;2962;51.312;7.378;2022-09-17T02:00:10;40.33;;;18.07;;
5871;SDS011;2962;51.312;7.378;2022-09-17T02:05:27;49.30;;;20.40;;
5871;SDS011;2962;51.312;7.378;2022-09-17T02:08:22;52.63;;;22.67;;
5871;SDS011;2962;51.312;7.378;2022-09-17T02:10:58;40.47;;;18.27;;
5871;SDS011;2962;51.312;7.378;2022-09-17T02:13:35;46.27;;;22.10;;
5871;SDS011;2962;51.312;7.378;2022-09-17T02:16:07;36.00;;;18.63;;
5871;SDS011;2962;51.312;7.378;2022-09-17T02:19:23;51.00;;;22.73;;
5871;SDS011;2962;51.312;7.378;2022-09-17T02:21:39;43.20;;;21.83;;
5871;SDS011;2962;51.312;7.378;2022-09-17T02:29:58;63.17;;;26.93;;
5871;SDS011;2962;51.312;7.378;2022-09-17T02:32:23;45.27;;;24.07;;
5871;SDS011;2962;51.312;7.378;2022-09-17T02:34:49;49.47;;;23.47;;
5871;SDS011;2962;51.312;7.378;2022-09-17T02:37:14;38.13;;;21.87;;
5871;SDS011;2962;51.312;7.378;2022-09-17T02:39:40;50.33;;;23.40;;
5871;SDS011;2962;51.312;7.378;2022-09-17T02:42:14;55.93;;;23.60;;
5871;SDS011;2962;51.312;7.378;2022-09-17T02:44:56;51.03;;;22.17;;
5871;SDS011;2962;51.312;7.378;2022-09-17T02:50:41;40.40;;;18.13;;
5871;SDS011;2962;51.312;7.378;2022-09-17T02:56:19;41.43;;;19.23;;
5871;SDS011;2962;51.312;7.378;2022-09-17T03:04:15;36.13;;;17.10;;
5871;SDS011;2962;51.312;7.378;2022-09-17T03:06:44;35.33;;;16.67;;
5871;SDS011;2962;51.312;7.378;2022-09-17T03:09:12;41.20;;;18.20;;
5871;SDS011;2962;51.312;7.378;2022-09-17T03:11:38;35.20;;;16.67;;
5871;SDS011;2962;51.312;7.378;2022-09-17T03:14:04;26.00;;;16.03;;
5871;SDS011;2962;51.312;7.378;2022-09-17T03:16:30;39.73;;;17.77;;
5871;SDS011;2962;51.312;7.378;2022-09-17T03:18:55;37.87;;;17.53;;
5871;SDS011;2962;51.312;7.378;2022-09-17T03:21:20;38.40;;;17.77;;
5871;SDS011;2962;51.312;7.378;2022-09-17T03:23:46;23.30;;;14.67;;
5871;SDS011;2962;51.312;7.378;2022-09-17T03:26:11;31.37;;;14.73;;
5871;SDS011;2962;51.312;7.378;2022-09-17T03:28:36;35.80;;;15.83;;
5871;SDS011;2962;51.312;7.378;2022-09-17T03:31:02;33.03;;;16.13;;
5871;SDS011;2962;51.312;7.378;2022-09-17T03:33:27;32.73;;;17.00;;
5871;SDS011;2962;51.312;7.378;2022-09-17T03:35:52;36.87;;;17.00;;
5871;SDS011;2962;51.312;7.378;2022-09-17T03:38:17;28.40;;;16.60;;
5871;SDS011;2962;51.312;7.378;2022-09-17T03:40:43;32.97;;;15.53;;
5871;SDS011;2962;51.312;7.378;2022-09-17T03:43:08;31.97;;;16.33;;
5871;SDS011;2962;51.312;7.378;2022-09-17T03:45:34;36.17;;;16.90;;
5871;SDS011;2962;51.312;7.378;2022-09-17T03:47:59;41.50;;;16.20;;
5871;SDS011;2962;51.312;7.378;2022-09-17T03:50:25;34.60;;;15.70;;
5871;SDS011;2962;51.312;7.378;2022-09-17T03:52:50;23.20;;;12.40;;
5871;SDS011;2962;51.312;7.378;2022-09-17T03:55:16;26.03;;;11.67;;
5871;SDS011;2962;51.312;7.378;2022-09-17T03:57:41;30.73;;;14.27;;
5871;SDS011;2962;51.312;7.378;2022-09-17T04:00:07;22.53;;;12.10;;
5871;SDS011;2962;51.312;7.378;2022-09-17T04:02:33;28.57;;;11.83;;
5871;SDS011;2962;51.312;7.378;2022-09-17T04:04:58;28.03;;;12.23;;
5871;SDS011;2962;51.312;7.378;2022-09-17T04:07:24;29.77;;;9.90;;
5871;SDS011;2962;51.312;7.378;2022-09-17T04:09:49;38.27;;;10.67;;
5871;SDS011;2962;51.312;7.378;2022-09-17T04:12:14;19.83;;;10.47;;
5871;SDS011;2962;51.312;7.378;2022-09-17T04:14:40;30.33;;;10.87;;
5871;SDS011;2962;51.312;7.378;2022-09-17T04:17:05;17.07;;;8.00;;
5871;SDS011;2962;51.312;7.378;2022-09-17T04:19:30;20.83;;;9.43;;
5871;SDS011;2962;51.312;7.378;2022-09-17T04:21:56;11.83;;;6.87;;
5871;SDS011;2962;51.312;7.378;2022-09-17T04:24:21;22.97;;;8.23;;
5871;SDS011;2962;51.312;7.378;2022-09-17T04:26:46;19.57;;;9.23;;
5871;SDS011;2962;51.312;7.378;2022-09-17T04:29:12;18.50;;;6.50;;
5871;SDS011;2962;51.312;7.378;2022-09-17T04:31:37;11.03;;;6.00;;
5871;SDS011;2962;51.312;7.378;2022-09-17T04:34:02;17.83;;;6.23;;
5871;SDS011;2962;51.312;7.378;2022-09-17T04:36:27;15.13;;;5.67;;
5871;SDS011;2962;51.312;7.378;2022-09-17T04:38:53;11.23;;;5.73;;
5871;SDS011;2962;51.312;7.378;2022-09-17T04:41:18;15.17;;;5.27;;
5871;SDS011;2962;51.312;7.378;2022-09-17T04:43:43;21.10;;;5.50;;
5871;SDS011;2962;51.312;7.378;2022-09-17T04:46:09;17.67;;;4.73;;
5871;SDS011;2962;51.312;7.378;2022-09-17T04:48:34;16.30;;;3.90;;
5871;SDS011;2962;51.312;7.378;2022-09-17T04:50:59;17.40;;;3.50;;
5871;SDS011;2962;51.312;7.378;2022-09-17T04:53:25;13.30;;;2.23;;
5871;SDS011;2962;51.312;7.378;2022-09-17T04:55:50;11.53;;;3.63;;
5871;SDS011;2962;51.312;7.378;2022-09-17T04:58:15;15.80;;;3.07;;
5871;SDS011;2962;51.312;7.378;2022-09-17T05:00:40;12.43;;;2.40;;
5871;SDS011;2962;51.312;7.378;2022-09-17T05:03:06;24.23;;;3.80;;
5871;SDS011;2962;51.312;7.378;2022-09-17T05:05:32;10.50;;;3.40;;
5871;SDS011;2962;51.312;7.378;2022-09-17T05:07:57;12.30;;;3.00;;
5871;SDS011;2962;51.312;7.378;2022-09-17T05:10:22;14.53;;;3.90;;
5871;SDS011;2962;51.312;7.378;2022-09-17T05:12:48;9.97;;;2.00;;
5871;SDS011;2962;51.312;7.378;2022-09-17T05:15:15;7.70;;;2.33;;
5871;SDS011;2962;51.312;7.378;2022-09-17T05:17:40;11.87;;;2.57;;
5871;SDS011;2962;51.312;7.378;2022-09-17T05:20:06;13.57;;;2.70;;
5871;SDS011;2962;51.312;7.378;2022-09-17T05:22:31;14.13;;;2.60;;
5871;SDS011;2962;51.312;7.378;2022-09-17T05:24:56;23.10;;;3.50;;
5871;SDS011;2962;51.312;7.378;2022-09-17T05:27:22;13.33;;;3.30;;
5871;SDS011;2962;51.312;7.378;2022-09-17T05:29:47;14.37;;;3.90;;
5871;SDS011;2962;51.312;7.378;2022-09-17T05:32:12;11.13;;;2.20;;
5871;SDS011;2962;51.312;7.378;2022-09-17T05:34:38;8.47;;;2.70;;
5871;SDS011;2962;51.312;7.378;2022-09-17T05:37:04;9.23;;;3.03;;
5871;SDS011;2962;51.312;7.378;2022-09-17T05:39:29;12.00;;;3.10;;
5871;SDS011;2962;51.312;7.378;2022-09-17T05:41:55;11.47;;;2.10;;
5871;SDS011;2962;51.312;7.378;2022-09-17T05:44:20;6.30;;;2.20;;
5871;SDS011;2962;51.312;7.378;2022-09-17T05:46:46;4.40;;;2.73;;
5871;SDS011;2962;51.312;7.378;2022-09-17T05:49:12;11.43;;;2.60;;
5871;SDS011;2962;51.312;7.378;2022-09-17T05:51:39;10.03;;;2.30;;
5871;SDS011;2962;51.312;7.378;2022-09-17T05:54:05;14.20;;;2.27;;
5871;SDS011;2962;51.312;7.378;2022-09-17T05:56:30;14.73;;;2.40;;
5871;SDS011;2962;51.312;7.378;2022-09-17T05:58:55;14.43;;;2.10;;
5871;SDS011;2962;51.312;7.378;2022-09-17T06:01:21;18.07;;;3.37;;
5871;SDS011;2962;51.312;7.378;2022-09-17T06:03:47;9.00;;;2.13;;
5871;SDS011;2962;51.312;7.378;2022-09-17T06:06:12;7.33;;;2.00;;
5871;SDS011;2962;51.312;7.378;2022-09-17T06:08:38;7.70;;;1.87;;
5871;SDS011;2962;51.312;7.378;2022-09-17T06:11:04;9.20;;;2.00;;
5871;SDS011;2962;51.312;7.378;2022-09-17T06:13:30;17.00;;;3.07;;
5871;SDS011;2962;51.312;7.378;2022-09-17T06:15:55;7.97;;;1.80;;
5871;SDS011;2962;51.312;7.378;2022-09-17T06:18:21;10.60;;;2.13;;
5871;SDS011;2962;51.312;7.378;2022-09-17T06:20:59;14.33;;;3.13;;
5871;SDS011;2962;51.312;7.378;2022-09-17T06:23:26;7.10;;;2.93;;
5871;SDS011;2962;51.312;7.378;2022-09-17T06:25:56;12.57;;;3.53;;
5871;SDS011;2962;51.312;7.378;2022-09-17T06:28:23;5.60;;;2.50;;
5871;SDS011;2962;51.312;7.378;2022-09-17T06:30:52;15.97;;;2.13;;
5871;SDS011;2962;51.312;7.378;2022-09-17T06:33:18;13.60;;;2.10;;
5871;SDS011;2962;51.312;7.378;2022-09-17T06:35:47;6.77;;;1.30;;
5871;SDS011;2962;51.312;7.378;2022-09-17T06:38:12;11.10;;;1.70;;
5871;SDS011;2962;51.312;7.378;2022-09-17T06:40:39;4.50;;;0.90;;
5871;SDS011;2962;51.312;7.378;2022-09-17T06:43:05;2.70;;;1.80;;
5871;SDS011;2962;51.312;7.378;2022-09-17T06:45:31;5.90;;;1.77;;
5871;SDS011;2962;51.312;7.378;2022-09-17T06:47:56;5.93;;;1.23;;
5871;SDS011;2962;51.312;7.378;2022-09-17T06:50:22;10.53;;;1.53;;
5871;SDS011;2962;51.312;7.378;2022-09-17T06:52:47;5.40;;;1.20;;
5871;SDS011;2962;51.312;7.378;2022-09-17T06:55:13;8.23;;;1.30;;
5871;SDS011;2962;51.312;7.378;2022-09-17T06:57:40;11.27;;;2.67;;
5871;SDS011;2962;51.312;7.378;2022-09-17T07:00:05;7.90;;;1.87;;
5871;SDS011;2962;51.312;7.378;2022-09-17T07:02:31;2.07;;;1.37;;
5871;SDS011;2962;51.312;7.378;2022-09-17T07:04:56;12.30;;;1.87;;
5871;SDS011;2962;51.312;7.378;2022-09-17T07:07:22;9.70;;;1.10;;
5871;SDS011;2962;51.312;7.378;2022-09-17T07:09:47;12.83;;;1.73;;
5871;SDS011;2962;51.312;7.378;2022-09-17T07:12:12;8.13;;;1.50;;
5871;SDS011;2962;51.312;7.378;2022-09-17T07:14:38;12.30;;;2.73;;
5871;SDS011;2962;51.312;7.378;2022-09-17T07:17:03;7.03;;;2.97;;
5871;SDS011;2962;51.312;7.378;2022-09-17T07:19:29;15.90;;;2.50;;
5871;SDS011;2962;51.312;7.378;2022-09-17T07:21:55;10.73;;;2.53;;
5871;SDS011;2962;51.312;7.378;2022-09-17T07:24:20;5.13;;;1.53;;
5871;SDS011;2962;51.312;7.378;2022-09-17T07:26:46;5.20;;;1.60;;
5871;SDS011;2962;51.312;7.378;2022-09-17T07:29:11;8.43;;;3.03;;
5871;SDS011;2962;51.312;7.378;2022-09-17T07:31:36;3.93;;;1.80;;
5871;SDS011;2962;51.312;7.378;2022-09-17T07:34:02;9.60;;;2.03;;
5871;SDS011;2962;51.312;7.378;2022-09-17T07:36:27;10.00;;;2.03;;
5871;SDS011;2962;51.312;7.378;2022-09-17T07:38:52;6.20;;;2.00;;
5871;SDS011;2962;51.312;7.378;2022-09-17T07:41:18;2.23;;;1.60;;
5871;SDS011;2962;51.312;7.378;2022-09-17T07:43:43;15.40;;;2.40;;
5871;SDS011;2962;51.312;7.378;2022-09-17T07:46:12;8.90;;;1.77;;
5871;SDS011;2962;51.312;7.378;2022-09-17T07:48:39;13.70;;;2.23;;
5871;SDS011;2962;51.312;7.378;2022-09-17T07:51:05;9.27;;;2.60;;
5871;SDS011;2962;51.312;7.378;2022-09-17T07:53:30;3.73;;;2.03;;
5871;SDS011;2962;51.312;7.378;2022-09-17T07:55:57;4.33;;;1.93;;
5871;SDS011;2962;51.312;7.378;2022-09-17T07:58:27;6.90;;;1.93;;
5871;SDS011;2962;51.312;7.378;2022-09-17T08:01:01;3.73;;;2.27;;
5871;SDS011;2962;51.312;7.378;2022-09-17T08:03:32;6.93;;;2.40;;
5871;SDS011;2962;51.312;7.378;2022-09-17T08:06:05;11.03;;;2.13;;
5871;SDS011;2962;51.312;7.378;2022-09-17T08:08:36;9.40;;;1.97;;
5871;SDS011;2962;51.312;7.378;2022-09-17T08:11:04;5.93;;;1.27;;
5871;SDS011;2962;51.312;7.378;2022-09-17T08:13:32;14.43;;;1.57;;
5871;SDS011;2962;51.312;7.378;2022-09-17T08:16:01;13.07;;;1.57;;
5871;SDS011;2962;51.312;7.378;2022-09-17T08:18:29;7.47;;;1.50;;
5871;SDS011;2962;51.312;7.378;2022-09-17T08:20:55;3.23;;;1.60;;
5871;SDS011;2962;51.312;7.378;2022-09-17T08:23:22;4.33;;;2.10;;
5871;SDS011;2962;51.312;7.378;2022-09-17T08:25:53;9.93;;;1.93;;
5871;SDS011;2962;51.312;7.378;2022-09-17T08:28:20;6.40;;;2.17;;
5871;SDS011;2962;51.312;7.378;2022-09-17T08:30:46;4.43;;;2.40;;
5871;SDS011;2962;51.312;7.378;2022-09-17T08:33:13;6.93;;;2.67;;
5871;SDS011;2962;51.312;7.378;2022-09-17T08:35:39;6.30;;;1.43;;
5871;SDS011;2962;51.312;7.378;2022-09-17T08:38:04;3.77;;;1.60;;
5871;SDS011;2962;51.312;7.378;2022-09-17T08:40:31;8.60;;;2.80;;
5871;SDS011;2962;51.312;7.378;2022-09-17T08:43:03;8.20;;;1.47;;
5871;SDS011;2962;51.312;7.378;2022-09-17T08:45:29;2.70;;;1.17;;
5871;SDS011;2962;51.312;7.378;2022-09-17T08:47:55;6.97;;;1.33;;
5871;SDS011;2962;51.312;7.378;2022-09-17T08:50:34;2.67;;;0.77;;
5871;SDS011;2962;51.312;7.378;2022-09-17T09:04:02;6.50;;;1.30;;
5871;SDS011;2962;51.312;7.378;2022-09-17T09:06:54;2.13;;;1.10;;
5871;SDS011;2962;51.312;7.378;2022-09-17T09:09:27;8.77;;;1.20;;
5871;SDS011;2962;51.312;7.378;2022-09-17T09:12:03;1.43;;;1.13;;
5871;SDS011;2962;51.312;7.378;2022-09-17T09:14:39;7.63;;;1.50;;
5871;SDS011;2962;51.312;7.378;2022-09-17T09:17:15;8.77;;;2.70;;
5871;SDS011;2962;51.312;7.378;2022-09-17T09:19:45;3.30;;;1.47;;
5871;SDS011;2962;51.312;7.378;2022-09-17T09:27:22;8.63;;;1.63;;
5871;SDS011;2962;51.312;7.378;2022-09-17T09:32:50;4.57;;;1.20;;
5871;SDS011;2962;51.312;7.378;2022-09-17T09:35:28;2.80;;;1.30;;
5871;SDS011;2962;51.312;7.378;2022-09-17T09:38:19;3.23;;;1.40;;
5871;SDS011;2962;51.312;7.378;2022-09-17T09:46:06;7.90;;;2.00;;
5871;SDS011;2962;51.312;7.378;2022-09-17T09:59:31;0.60;;;0.60;;
5871;SDS011;2962;51.312;7.378;2022-09-17T10:01:57;1.40;;;1.30;;
5871;SDS011;2962;51.312;7.378;2022-09-17T10:04:26;1.23;;;0.60;;
5871;SDS011;2962;51.312;7.378;2022-09-17T10:06:54;2.80;;;1.17;;
5871;SDS011;2962;51.312;7.378;2022-09-17T10:09:27;0.97;;;0.63;;
5871;SDS011;2962;51.312;7.378;2022-09-17T10:14:34;1.80;;;0.50;;
5871;SDS011;2962;51.312;7.378;2022-09-17T10:19:46;0.97;;;0.43;;
5871;SDS011;2962;51.312;7.378;2022-09-17T10:22:28;0.50;;;0.50;;
5871;SDS011;2962;51.312;7.378;2022-09-17T10:24:57;5.53;;;0.77;;
5871;SDS011;2962;51.312;7.378;2022-09-17T10:27:24;2.57;;;0.57;;
5871;SDS011;2962;51.312;7.378;2022-09-17T10:29:59;1.20;;;0.40;;
5871;SDS011;2962;51.312;7.378;2022-09-17T10:32:28;3.80;;;1.13;;
5871;SDS011;2962;51.312;7.378;2022-09-17T10:34:58;1.53;;;0.73;;
5871;SDS011;2962;51.312;7.378;2022-09-17T10:37:32;2.87;;;0.80;;
5871;SDS011;2962;51.312;7.378;2022-09-17T10:42:43;0.70;;;0.60;;
5871;SDS011;2962;51.312;7.378;2022-09-17T10:45:35;1.80;;;0.67;;
5871;SDS011;2962;51.312;7.378;2022-09-17T10:48:03;3.23;;;0.97;;
5871;SDS011;2962;51.312;7.378;2022-09-17T10:50:29;2.47;;;0.70;;
5871;SDS011;2962;51.312;7.378;2022-09-17T10:52:57;6.63;;;0.70;;
5871;SDS011;2962;51.312;7.378;2022-09-17T10:55:39;0.70;;;0.67;;
5871;SDS011;2962;51.312;7.378;2022-09-17T10:58:32;5.20;;;0.60;;
5871;SDS011;2962;51.312;7.378;2022-09-17T11:01:19;1.43;;;0.87;;
5871;SDS011;2962;51.312;7.378;2022-09-17T11:04:20;4.90;;;0.60;;
5871;SDS011;2962;51.312;7.378;2022-09-17T11:07:06;3.63;;;0.70;;
5871;SDS011;2962;51.312;7.378;2022-09-17T11:13:01;0.30;;;0.30;;
5871;SDS011;2962;51.312;7.378;2022-09-17T11:18:12;2.90;;;0.60;;
5871;SDS011;2962;51.312;7.378;2022-09-17T11:26:31;1.90;;;0.47;;
5871;SDS011;2962;51.312;7.378;2022-09-17T11:29:11;0.90;;;0.50;;
5871;SDS011;2962;51.312;7.378;2022-09-17T11:34:17;0.50;;;0.40;;
5871;SDS011;2962;51.312;7.378;2022-09-17T11:42:20;0.70;;;0.70;;
5871;SDS011;2962;51.312;7.378;2022-09-17T11:44:59;2.30;;;0.53;;
5871;SDS011;2962;51.312;7.378;2022-09-17T11:47:32;0.97;;;0.87;;
5871;SDS011;2962;51.312;7.378;2022-09-17T11:50:02;0.77;;;0.70;;
5871;SDS011;2962;51.312;7.378;2022-09-17T11:52:40;1.30;;;0.70;;
5871;SDS011;2962;51.312;7.378;2022-09-17T11:55:20;1.67;;;1.67;;
5871;SDS011;2962;51.312;7.378;2022-09-17T11:57:52;3.03;;;2.83;;
5871;SDS011;2962;51.312;7.378;2022-09-17T12:00:23;2.50;;;2.40;;
5871;SDS011;2962;51.312;7.378;2022-09-17T12:05:47;0.70;;;0.63;;
5871;SDS011;2962;51.312;7.378;2022-09-17T12:11:15;0.20;;;0.20;;
5871;SDS011;2962;51.312;7.378;2022-09-17T12:13:52;0.40;;;0.40;;
5871;SDS011;2962;51.312;7.378;2022-09-17T12:16:25;0.67;;;0.33;;
5871;SDS011;2962;51.312;7.378;2022-09-17T12:21:42;1.20;;;0.50;;
5871;SDS011;2962;51.312;7.378;2022-09-17T12:24:21;1.10;;;0.40;;
5871;SDS011;2962;51.312;7.378;2022-09-17T12:26:54;0.30;;;0.30;;
5871;SDS011;2962;51.312;7.378;2022-09-17T12:49:08;0.70;;;0.70;;
5871;SDS011;2962;51.312;7.378;2022-09-17T12:51:51;4.67;;;1.27;;
5871;SDS011;2962;51.312;7.378;2022-09-17T12:59:25;3.33;;;0.57;;
5871;SDS011;2962;51.312;7.378;2022-09-17T13:02:03;0.40;;;0.40;;
5871;SDS011;2962;51.312;7.378;2022-09-17T13:07:38;3.07;;;0.80;;
5871;SDS011;2962;51.312;7.378;2022-09-17T13:15:40;0.53;;;0.37;;
5871;SDS011;2962;51.312;7.378;2022-09-17T13:21:10;1.70;;;0.37;;
5871;SDS011;2962;51.312;7.378;2022-09-17T13:23:46;2.53;;;0.40;;
5871;SDS011;2962;51.312;7.378;2022-09-17T13:26:14;0.73;;;0.30;;
5871;SDS011;2962;51.312;7.378;2022-09-17T13:28:43;0.77;;;0.30;;
5871;SDS011;2962;51.312;7.378;2022-09-17T13:31:10;2.00;;;0.60;;
5871;SDS011;2962;51.312;7.378;2022-09-17T13:33:54;0.27;;;0.27;;
5871;SDS011;2962;51.312;7.378;2022-09-17T13:39:35;1.60;;;0.40;;
5871;SDS011;2962;51.312;7.378;2022-09-17T13:44:40;0.83;;;0.40;;
5871;SDS011;2962;51.312;7.378;2022-09-17T13:47:09;0.60;;;0.60;;
5871;SDS011;2962;51.312;7.378;2022-09-17T13:49:45;0.70;;;0.70;;
5871;SDS011;2962;51.312;7.378;2022-09-17T13:52:26;1.47;;;0.30;;
5871;SDS011;2962;51.312;7.378;2022-09-17T13:54:55;3.77;;;0.80;;
5871;SDS011;2962;51.312;7.378;2022-09-17T13:57:20;1.33;;;0.50;;
5871;SDS011;2962;51.312;7.378;2022-09-17T13:59:54;3.40;;;0.40;;
5871;SDS011;2962;51.312;7.378;2022-09-17T14:02:29;3.03;;;0.60;;
5871;SDS011;2962;51.312;7.378;2022-09-17T14:14:49;6.50;;;1.10;;
5871;SDS011;2962;51.312;7.378;2022-09-17T14:16:50;0.60;;;0.60;;
5871;SDS011;2962;51.312;7.378;2022-09-17T14:19:32;0.57;;;0.57;;
5871;SDS011;2962;51.312;7.378;2022-09-17T14:24:46;0.77;;;0.50;;
5871;SDS011;2962;51.312;7.378;2022-09-17T14:30:30;1.10;;;0.40;;
5871;SDS011;2962;51.312;7.378;2022-09-17T14:37:59;0.43;;;0.40;;
5871;SDS011;2962;51.312;7.378;2022-09-17T14:40:31;0.83;;;0.53;;
5871;SDS011;2962;51.312;7.378;2022-09-17T14:42:58;3.30;;;0.30;;
5871;SDS011;2962;51.312;7.378;2022-09-17T14:45:28;1.40;;;0.50;;
5871;SDS011;2962;51.312;7.378;2022-09-17T14:53:41;2.30;;;0.50;;
5871;SDS011;2962;51.312;7.378;2022-09-17T14:56:08;0.93;;;0.40;;
5871;SDS011;2962;51.312;7.378;2022-09-17T14:58:37;0.90;;;0.47;;
5871;SDS011;2962;51.312;7.378;2022-09-17T15:01:12;1.10;;;0.70;;
5871;SDS011;2962;51.312;7.378;2022-09-17T15:03:46;2.63;;;0.70;;
5871;SDS011;2962;51.312;7.378;2022-09-17T15:06:19;2.10;;;0.30;;
5871;SDS011;2962;51.312;7.378;2022-09-17T15:08:45;1.13;;;0.40;;
5871;SDS011;2962;51.312;7.378;2022-09-17T15:11:10;6.53;;;0.90;;
5871;SDS011;2962;51.312;7.378;2022-09-17T15:13:41;0.93;;;0.90;;
5871;SDS011;2962;51.312;7.378;2022-09-17T15:16:26;0.53;;;0.40;;
5871;SDS011;2962;51.312;7.378;2022-09-17T15:18:55;1.90;;;0.50;;
5871;SDS011;2962;51.312;7.378;2022-09-17T15:21:29;2.43;;;0.73;;
5871;SDS011;2962;51.312;7.378;2022-09-17T15:23:57;0.87;;;0.67;;
5871;SDS011;2962;51.312;7.378;2022-09-17T15:26:31;4.97;;;0.90;;
5871;SDS011;2962;51.312;7.378;2022-09-17T15:29:00;0.93;;;0.40;;
5871;SDS011;2962;51.312;7.378;2022-09-17T15:31:29;0.90;;;0.90;;
5871;SDS011;2962;51.312;7.378;2022-09-17T15:33:57;0.70;;;0.70;;
5871;SDS011;2962;51.312;7.378;2022-09-17T15:36:24;1.40;;;0.60;;
5871;SDS011;2962;51.312;7.378;2022-09-17T15:38:55;0.83;;;0.60;;
5871;SDS011;2962;51.312;7.378;2022-09-17T15:46:31;1.53;;;0.70;;
5871;SDS011;2962;51.312;7.378;2022-09-17T15:48:57;2.77;;;1.20;;
5871;SDS011;2962;51.312;7.378;2022-09-17T15:51:25;1.90;;;1.80;;
5871;SDS011;2962;51.312;7.378;2022-09-17T15:53:57;1.07;;;0.90;;
5871;SDS011;2962;51.312;7.378;2022-09-17T15:56:32;5.20;;;1.57;;
5871;SDS011;2962;51.312;7.378;2022-09-17T15:59:16;5.80;;;3.50;;
5871;SDS011;2962;51.312;7.378;2022-09-17T16:01:52;3.30;;;1.17;;
5871;SDS011;2962;51.312;7.378;2022-09-17T16:04:20;2.13;;;1.00;;
5871;SDS011;2962;51.312;7.378;2022-09-17T16:07:22;3.70;;;0.87;;
5871;SDS011;2962;51.312;7.378;2022-09-17T16:09:53;2.33;;;0.50;;
5871;SDS011;2962;51.312;7.378;2022-09-17T16:12:23;4.73;;;1.00;;
5871;SDS011;2962;51.312;7.378;2022-09-17T16:14:51;6.17;;;0.60;;
5871;SDS011;2962;51.312;7.378;2022-09-17T16:17:22;2.93;;;1.00;;
5871;SDS011;2962;51.312;7.378;2022-09-17T16:19:49;3.30;;;0.80;;
5871;SDS011;2962;51.312;7.378;2022-09-17T16:22:15;5.73;;;1.07;;
5871;SDS011;2962;51.312;7.378;2022-09-17T16:24:40;2.10;;;0.70;;
5871;SDS011;2962;51.312;7.378;2022-09-17T16:27:06;1.37;;;1.03;;
5871;SDS011;2962;51.312;7.378;2022-09-17T16:29:31;1.90;;;0.40;;
5871;SDS011;2962;51.312;7.378;2022-09-17T16:31:56;0.63;;;0.37;;
5871;SDS011;2962;51.312;7.378;2022-09-17T16:34:22;4.87;;;1.07;;
5871;SDS011;2962;51.312;7.378;2022-09-17T16:36:48;5.30;;;0.37;;
5871;SDS011;2962;51.312;7.378;2022-09-17T16:39:14;0.77;;;0.37;;
5871;SDS011;2962;51.312;7.378;2022-09-17T16:41:39;1.00;;;0.60;;
5871;SDS011;2962;51.312;7.378;2022-09-17T16:44:04;1.47;;;0.70;;
5871;SDS011;2962;51.312;7.378;2022-09-17T16:46:30;1.40;;;0.30;;
5871;SDS011;2962;51.312;7.378;2022-09-17T16:48:55;1.90;;;0.77;;
5871;SDS011;2962;51.312;7.378;2022-09-17T16:51:21;0.53;;;0.50;;
5871;SDS011;2962;51.312;7.378;2022-09-17T16:53:46;1.00;;;0.47;;
5871;SDS011;2962;51.312;7.378;2022-09-17T16:56:14;2.03;;;0.43;;
5871;SDS011;2962;51.312;7.378;2022-09-17T16:58:39;2.20;;;0.50;;
5871;SDS011;2962;51.312;7.378;2022-09-17T17:01:09;0.53;;;0.50;;
5871;SDS011;2962;51.312;7.378;2022-09-17T17:03:35;0.50;;;0.50;;
5871;SDS011;2962;51.312;7.378;2022-09-17T17:06:00;1.00;;;0.40;;
5871;SDS011;2962;51.312;7.378;2022-09-17T17:08:27;0.43;;;0.43;;
5871;SDS011;2962;51.312;7.378;2022-09-17T17:10:53;5.07;;;0.93;;
5871;SDS011;2962;51.312;7.378;2022-09-17T17:13:18;1.30;;;0.50;;
5871;SDS011;2962;51.312;7.378;2022-09-17T17:15:43;3.13;;;0.60;;
5871;SDS011;2962;51.312;7.378;2022-09-17T17:18:09;1.40;;;1.20;;
5871;SDS011;2962;51.312;7.378;2022-09-17T17:20:34;1.57;;;0.53;;
5871;SDS011;2962;51.312;7.378;2022-09-17T17:23:00;2.43;;;0.60;;
5871;SDS011;2962;51.312;7.378;2022-09-17T17:25:25;1.00;;;0.87;;
5871;SDS011;2962;51.312;7.378;2022-09-17T17:27:51;2.63;;;0.87;;
5871;SDS011;2962;51.312;7.378;2022-09-17T17:30:16;4.17;;;0.83;;
5871;SDS011;2962;51.312;7.378;2022-09-17T17:32:42;1.90;;;0.60;;
5871;SDS011;2962;51.312;7.378;2022-09-17T17:35:09;0.97;;;0.40;;
5871;SDS011;2962;51.312;7.378;2022-09-17T17:37:35;3.77;;;1.20;;
5871;SDS011;2962;51.312;7.378;2022-09-17T17:40:01;2.70;;;0.57;;
5871;SDS011;2962;51.312;7.378;2022-09-17T17:42:30;4.37;;;0.63;;
5871;SDS011;2962;51.312;7.378;2022-09-17T17:45:01;2.53;;;0.60;;
5871;SDS011;2962;51.312;7.378;2022-09-17T17:47:27;2.73;;;1.30;;
5871;SDS011;2962;51.312;7.378;2022-09-17T17:49:52;2.87;;;0.80;;
5871;SDS011;2962;51.312;7.378;2022-09-17T17:52:17;4.90;;;0.70;;
5871;SDS011;2962;51.312;7.378;2022-09-17T17:54:42;1.60;;;0.63;;
5871;SDS011;2962;51.312;7.378;2022-09-17T17:57:08;4.53;;;0.90;;
5871;SDS011;2962;51.312;7.378;2022-09-17T17:59:34;6.90;;;1.40;;
5871;SDS011;2962;51.312;7.378;2022-09-17T18:01:59;2.73;;;1.23;;
5871;SDS011;2962;51.312;7.378;2022-09-17T18:04:24;1.90;;;0.70;;
5871;SDS011;2962;51.312;7.378;2022-09-17T18:06:50;8.30;;;0.97;;
5871;SDS011;2962;51.312;7.378;2022-09-17T18:09:15;5.97;;;0.80;;
5871;SDS011;2962;51.312;7.378;2022-09-17T18:11:40;5.00;;;1.33;;
5871;SDS011;2962;51.312;7.378;2022-09-17T18:14:06;3.43;;;0.90;;
5871;SDS011;2962;51.312;7.378;2022-09-17T18:16:35;3.23;;;0.90;;
5871;SDS011;2962;51.312;7.378;2022-09-17T18:19:00;4.50;;;0.90;;
5871;SDS011;2962;51.312;7.378;2022-09-17T18:21:25;4.30;;;0.90;;
5871;SDS011;2962;51.312;7.378;2022-09-17T18:23:51;6.07;;;0.93;;
5871;SDS011;2962;51.312;7.378;2022-09-17T18:26:21;3.50;;;0.90;;
5871;SDS011;2962;51.312;7.378;2022-09-17T18:28:48;6.07;;;1.30;;
5871;SDS011;2962;51.312;7.378;2022-09-17T18:33:46;3.57;;;1.37;;